createdAt,value
2022-10-14T00:00:37.979Z,12.87
2022-10-14T00:03:07.319Z,12.30
2022-10-14T00:05:35.522Z,12.33
2022-10-14T00:08:03.787Z,11.63
2022-10-14T00:10:31.941Z,13.23
2022-10-14T00:13:00.083Z,12.20
2022-10-14T00:15:28.188Z,12.73
2022-10-14T00:17:56.136Z,13.17
2022-10-14T00:20:25.351Z,11.90
2022-10-14T00:22:54.129Z,11.60
2022-10-14T00:25:33.541Z,13.00
2022-10-14T00:28:03.521Z,12.70
2022-10-14T00:30:31.743Z,11.90
2022-10-14T00:32:59.532Z,11.57
2022-10-14T00:35:28.774Z,11.87
2022-10-14T00:37:56.604Z,13.13
2022-10-14T00:40:24.870Z,14.43
2022-10-14T00:42:53.067Z,14.40
2022-10-14T00:45:25.539Z,11.97
2022-10-14T00:47:54.228Z,13.77
2022-10-14T00:50:23.008Z,12.60
2022-10-14T00:52:52.282Z,12.23
2022-10-14T00:55:21.141Z,12.77
2022-10-14T00:57:49.293Z,11.83
2022-10-14T01:00:20.540Z,13.17
2022-10-14T01:02:49.308Z,11.67
2022-10-14T01:05:20.541Z,12.97
2022-10-14T01:08:04.496Z,12.33
2022-10-14T01:10:44.530Z,13.77
2022-10-14T01:13:23.054Z,13.60
2022-10-14T01:16:03.504Z,12.17
2022-10-14T01:18:58.048Z,11.77
2022-10-14T01:21:29.888Z,12.60
2022-10-14T01:24:28.906Z,14.57
2022-10-14T01:27:32.468Z,12.80
2022-10-14T01:30:18.084Z,13.00
2022-10-14T01:33:04.068Z,14.07
2022-10-14T01:35:41.576Z,12.63
2022-10-14T01:38:13.976Z,12.40
2022-10-14T01:40:47.628Z,12.30
2022-10-14T01:43:16.072Z,13.33
2022-10-14T01:45:47.317Z,13.93
2022-10-14T01:48:17.969Z,13.50
2022-10-14T01:50:49.759Z,14.03
2022-10-14T01:53:23.116Z,14.07
2022-10-14T01:55:56.008Z,13.27
2022-10-14T01:58:28.184Z,14.87
2022-10-14T02:00:57.573Z,14.30
2022-10-14T02:03:25.691Z,15.43
2022-10-14T02:05:59.764Z,14.57
2022-10-14T02:08:35.930Z,16.50
2022-10-14T02:11:09.625Z,16.13
2022-10-14T02:13:58.464Z,18.53
2022-10-14T02:16:35.684Z,18.83
2022-10-14T02:19:11.435Z,15.33
2022-10-14T02:21:42.717Z,19.43
2022-10-14T02:24:27.526Z,16.63
2022-10-14T02:26:58.586Z,17.87
2022-10-14T02:29:28.621Z,18.43
2022-10-14T02:31:59.778Z,17.60
2022-10-14T02:34:27.761Z,18.17
2022-10-14T02:36:56.851Z,20.77
2022-10-14T02:39:31.403Z,17.67
2022-10-14T02:41:59.634Z,19.10
2022-10-14T02:44:27.444Z,17.23
2022-10-14T02:46:57.543Z,20.23
2022-10-14T02:49:25.923Z,18.77
2022-10-14T02:51:54.111Z,19.53
2022-10-14T02:54:22.261Z,20.37
2022-10-14T02:56:50.051Z,18.60
2022-10-14T02:59:19.624Z,19.73
2022-10-14T03:01:47.463Z,20.23
2022-10-14T03:04:16.593Z,19.83
2022-10-14T03:06:44.578Z,21.07
2022-10-14T03:09:12.729Z,20.60
2022-10-14T03:11:40.827Z,20.73
2022-10-14T03:14:08.950Z,22.13
2022-10-14T03:16:37.074Z,21.43
2022-10-14T03:19:04.967Z,21.07
2022-10-14T03:21:34.256Z,22.77
2022-10-14T03:24:02.395Z,21.93
2022-10-14T03:26:32.240Z,22.43
2022-10-14T03:29:00.438Z,21.83
2022-10-14T03:31:28.724Z,21.43
2022-10-14T03:33:56.587Z,22.60
2022-10-14T03:36:24.995Z,22.80
2022-10-14T03:38:54.272Z,24.10
2022-10-14T03:41:22.231Z,22.17
2022-10-14T03:43:50.491Z,22.90
2022-10-14T03:46:18.385Z,24.30
2022-10-14T03:48:46.199Z,24.20
2022-10-14T03:51:15.034Z,25.17
2022-10-14T03:53:43.010Z,25.07
2022-10-14T03:56:12.202Z,24.90
2022-10-14T03:58:40.024Z,24.53
2022-10-14T04:01:07.867Z,24.77
2022-10-14T04:03:35.959Z,24.13
2022-10-14T04:06:04.080Z,26.80
2022-10-14T04:08:32.187Z,27.30
2022-10-14T04:11:00.384Z,27.10
2022-10-14T04:13:29.562Z,25.83
2022-10-14T04:15:57.427Z,26.97
2022-10-14T04:18:25.595Z,26.27
2022-10-14T04:20:53.739Z,24.70
2022-10-14T04:23:21.878Z,27.20
2022-10-14T04:25:49.846Z,27.10
2022-10-14T04:28:18.230Z,26.90
2022-10-14T04:30:47.457Z,25.80
2022-10-14T04:33:15.493Z,25.10
2022-10-14T04:35:43.620Z,25.90
2022-10-14T04:38:11.608Z,25.93
2022-10-14T04:40:39.845Z,25.83
2022-10-14T04:43:07.790Z,27.43
2022-10-14T04:45:35.894Z,27.07
2022-10-14T04:48:05.388Z,26.27
2022-10-14T04:50:33.595Z,26.97
2022-10-14T04:53:01.435Z,26.73
2022-10-14T04:55:29.622Z,26.05
2022-10-14T04:57:57.738Z,25.25
2022-10-14T05:00:25.540Z,24.60
2022-10-14T05:02:53.406Z,26.17
2022-10-14T05:05:22.535Z,25.42
2022-10-14T05:07:50.463Z,25.67
2022-10-14T05:10:18.406Z,25.55
2022-10-14T05:12:46.318Z,25.33
2022-10-14T05:15:14.565Z,26.73
2022-10-14T05:17:44.529Z,26.17
2022-10-14T05:20:13.130Z,26.93
2022-10-14T05:22:42.603Z,26.65
2022-10-14T05:25:10.726Z,26.48
2022-10-14T05:27:38.559Z,25.35
2022-10-14T05:30:07.255Z,26.85
2022-10-14T05:32:35.117Z,27.77
2022-10-14T05:35:03.915Z,25.50
2022-10-14T05:37:32.050Z,26.92
2022-10-14T05:40:01.287Z,26.03
2022-10-14T05:42:29.128Z,25.35
2022-10-14T05:44:56.938Z,23.25
2022-10-14T05:47:25.198Z,23.38
2022-10-14T05:49:52.943Z,22.58
2022-10-14T05:52:21.464Z,24.30
2022-10-14T05:54:50.727Z,21.13
2022-10-14T05:57:19.938Z,21.58
2022-10-14T05:59:47.749Z,21.10
2022-10-14T06:02:15.769Z,19.55
2022-10-14T06:04:43.583Z,19.52
2022-10-14T06:07:11.334Z,19.17
2022-10-14T06:09:39.555Z,18.80
2022-10-14T06:12:08.016Z,17.23
2022-10-14T06:14:38.503Z,16.45
2022-10-14T06:17:06.646Z,16.13
2022-10-14T06:19:35.306Z,17.05
2022-10-14T06:22:03.631Z,14.43
2022-10-14T06:24:31.870Z,14.63
2022-10-14T06:27:00.086Z,15.60
2022-10-14T06:29:31.998Z,13.80
2022-10-14T06:32:01.296Z,14.10
2022-10-14T06:34:29.123Z,13.13
2022-10-14T06:37:01.973Z,13.38
2022-10-14T06:39:30.235Z,12.48
2022-10-14T06:41:58.515Z,11.77
2022-10-14T06:44:26.324Z,11.25
2022-10-14T06:46:54.312Z,12.00
2022-10-14T06:49:23.534Z,12.07
2022-10-14T06:51:51.408Z,11.27
2022-10-14T06:54:19.990Z,11.68
2022-10-14T06:56:48.089Z,10.82
2022-10-14T06:59:16.630Z,10.65
2022-10-14T07:01:44.469Z,10.50
2022-10-14T07:04:12.532Z,9.85
2022-10-14T07:06:42.698Z,9.10
2022-10-14T07:09:10.559Z,8.45
2022-10-14T07:11:38.439Z,8.07
2022-10-14T07:14:06.302Z,7.50
2022-10-14T07:16:34.105Z,7.43
2022-10-14T07:19:02.337Z,7.00
2022-10-14T07:21:31.027Z,6.88
2022-10-14T07:24:00.399Z,6.95
2022-10-14T07:26:30.622Z,6.55
2022-10-14T07:28:58.478Z,6.93
2022-10-14T07:31:26.595Z,6.55
2022-10-14T07:33:54.663Z,7.10
2022-10-14T07:36:23.010Z,6.20
2022-10-14T07:38:51.327Z,7.28
2022-10-14T07:41:22.909Z,7.47
2022-10-14T07:43:53.371Z,7.93
2022-10-14T07:46:29.179Z,7.43
2022-10-14T07:48:58.251Z,8.02
2022-10-14T07:51:26.473Z,8.05
2022-10-14T07:53:54.553Z,8.90
2022-10-14T07:56:24.292Z,9.02
2022-10-14T07:58:52.511Z,9.02
2022-10-14T08:01:24.613Z,9.80
2022-10-14T08:03:53.338Z,9.65
2022-10-14T08:06:21.494Z,9.82
2022-10-14T08:08:49.802Z,11.35
2022-10-14T08:11:24.604Z,11.25
2022-10-14T08:13:53.208Z,11.13
2022-10-14T08:16:23.056Z,11.20
2022-10-14T08:18:51.723Z,11.32
2022-10-14T08:21:21.503Z,12.30
2022-10-14T08:23:49.831Z,11.75
2022-10-14T08:26:27.906Z,12.30
2022-10-14T08:28:56.385Z,11.55
2022-10-14T08:31:24.441Z,12.15
2022-10-14T08:33:52.462Z,11.75
2022-10-14T08:36:21.175Z,12.60
2022-10-14T08:38:49.624Z,11.20
2022-10-14T08:41:40.228Z,11.90
2022-10-14T08:44:16.346Z,10.77
2022-10-14T08:46:51.197Z,10.95
2022-10-14T08:49:26.834Z,10.80
2022-10-14T08:51:59.649Z,10.48
2022-10-14T08:54:36.156Z,10.50
2022-10-14T08:57:05.107Z,9.73
2022-10-14T08:59:40.196Z,9.90
2022-10-14T09:02:21.167Z,9.93
2022-10-14T09:04:49.711Z,10.10
2022-10-14T09:07:19.657Z,10.20
2022-10-14T09:09:51.335Z,9.57
2022-10-14T09:12:25.228Z,9.70
2022-10-14T09:15:04.400Z,9.05
2022-10-14T09:17:38.139Z,9.10
2022-10-14T09:20:17.038Z,9.07
2022-10-14T09:22:46.375Z,8.32
2022-10-14T09:25:17.426Z,9.45
2022-10-14T09:30:20.243Z,12.10
2022-10-14T09:32:50.861Z,9.82
2022-10-14T09:35:25.780Z,9.65
2022-10-14T09:37:54.298Z,9.55
2022-10-14T09:40:29.984Z,9.32
2022-10-14T09:43:01.104Z,9.80
2022-10-14T09:45:36.887Z,10.32
2022-10-14T09:48:07.779Z,10.00
2022-10-14T09:50:40.576Z,9.95
2022-10-14T09:53:16.385Z,9.57
2022-10-14T09:55:49.402Z,9.55
2022-10-14T09:58:19.766Z,10.20
2022-10-14T10:00:49.519Z,10.18
2022-10-14T10:03:28.823Z,10.43
2022-10-14T10:06:08.871Z,9.82
2022-10-14T10:08:38.904Z,8.98
2022-10-14T10:11:10.443Z,8.15
2022-10-14T10:13:44.437Z,8.13
2022-10-14T10:16:26.033Z,8.27
2022-10-14T10:18:57.392Z,8.48
2022-10-14T10:21:27.020Z,8.35
2022-10-14T10:23:58.297Z,8.45
2022-10-14T10:26:29.918Z,8.15
2022-10-14T10:28:59.448Z,8.63
2022-10-14T10:31:52.557Z,7.50
2022-10-14T10:34:41.780Z,8.15
2022-10-14T10:37:26.081Z,7.72
2022-10-14T10:40:09.364Z,7.20
2022-10-14T10:42:46.718Z,6.65
2022-10-14T10:45:18.871Z,7.53
2022-10-14T10:47:58.849Z,6.68
2022-10-14T10:50:33.033Z,6.05
2022-10-14T10:53:18.482Z,5.60
2022-10-14T10:55:56.709Z,5.30
2022-10-14T10:58:42.361Z,5.10
2022-10-14T11:01:21.363Z,6.03
2022-10-14T11:04:02.675Z,5.43
2022-10-14T11:06:53.767Z,5.63
2022-10-14T11:09:47.495Z,5.68
2022-10-14T11:12:23.918Z,5.10
2022-10-14T11:17:58.139Z,6.05
2022-10-14T11:20:36.998Z,6.60
2022-10-14T11:23:30.358Z,5.50
2022-10-14T11:26:05.216Z,6.25
2022-10-14T11:28:44.037Z,5.20
2022-10-14T11:31:24.167Z,5.53
2022-10-14T11:34:08.786Z,5.90
2022-10-14T11:36:45.782Z,5.68
2022-10-14T11:39:35.550Z,5.22
2022-10-14T11:42:24.431Z,5.00
2022-10-14T11:45:11.364Z,4.97
2022-10-14T11:47:41.645Z,4.47
2022-10-14T11:50:16.840Z,4.40
2022-10-14T11:52:51.207Z,4.10
2022-10-14T11:55:24.684Z,4.07
2022-10-14T11:57:56.589Z,4.03
2022-10-14T12:03:11.192Z,4.35
2022-10-14T12:05:44.876Z,5.22
2022-10-14T12:08:22.128Z,4.10
2022-10-14T12:10:54.680Z,3.88
2022-10-14T12:13:31.228Z,4.10
2022-10-14T12:16:01.179Z,4.22
2022-10-14T12:18:32.986Z,3.85
2022-10-14T12:21:13.452Z,3.80
2022-10-14T12:23:48.431Z,3.85
2022-10-14T12:26:28.850Z,4.07
2022-10-14T12:28:58.828Z,4.30
2022-10-14T12:31:36.464Z,3.55
2022-10-14T12:34:18.942Z,3.55
2022-10-14T12:36:49.683Z,3.50
2022-10-14T12:39:33.229Z,3.67
2022-10-14T12:42:03.933Z,3.55
2022-10-14T12:44:43.194Z,3.72
2022-10-14T12:47:21.062Z,3.75
2022-10-14T12:49:52.015Z,3.28
2022-10-14T12:52:24.824Z,3.10
2022-10-14T12:54:54.941Z,3.10
2022-10-14T12:57:29.522Z,3.35
2022-10-14T13:00:01.663Z,3.50
2022-10-14T13:02:33.746Z,3.40
2022-10-14T13:05:04.909Z,3.15
2022-10-14T13:07:46.769Z,3.03
2022-10-14T13:10:52.532Z,3.88
2022-10-14T13:13:59.158Z,3.30
2022-10-14T13:16:56.248Z,4.20
2022-10-14T13:19:49.436Z,3.92
2022-10-14T13:22:40.037Z,4.07
2022-10-14T13:25:16.538Z,4.25
2022-10-14T13:27:55.526Z,4.70
2022-10-14T13:30:34.717Z,4.38
2022-10-14T13:33:13.298Z,4.57
2022-10-14T13:35:50.233Z,4.78
2022-10-14T13:38:20.642Z,4.90
2022-10-14T13:40:51.006Z,4.72
2022-10-14T13:43:22.290Z,4.97
2022-10-14T13:45:55.662Z,4.10
2022-10-14T13:48:30.981Z,5.28
2022-10-14T13:51:24.381Z,4.72
2022-10-14T13:54:01.333Z,4.78
2022-10-14T13:56:31.551Z,4.40
2022-10-14T13:58:59.935Z,4.35
2022-10-14T14:01:34.759Z,4.55
2022-10-14T14:04:03.224Z,4.00
2022-10-14T14:06:39.908Z,4.13
2022-10-14T14:09:22.936Z,3.65
2022-10-14T14:11:53.961Z,4.40
2022-10-14T14:14:24.073Z,4.70
2022-10-14T14:16:56.386Z,4.97
2022-10-14T14:19:27.974Z,4.80
2022-10-14T14:22:07.863Z,5.15
2022-10-14T14:24:36.082Z,4.82
2022-10-14T14:27:04.438Z,6.53
2022-10-14T14:29:34.112Z,5.35
2022-10-14T14:32:07.090Z,5.50
2022-10-14T14:34:36.960Z,5.78
2022-10-14T14:37:43.532Z,5.75
2022-10-14T14:40:00.310Z,6.38
2022-10-14T14:42:32.033Z,7.03
2022-10-14T14:45:05.269Z,6.30
2022-10-14T14:47:34.665Z,6.90
2022-10-14T14:50:30.159Z,7.28
2022-10-14T14:52:51.978Z,7.25
2022-10-14T14:55:38.304Z,6.72
2022-10-14T14:58:19.570Z,7.47
2022-10-14T15:00:47.811Z,8.13
2022-10-14T15:03:17.194Z,8.07
2022-10-14T15:05:51.658Z,8.13
2022-10-14T15:08:24.512Z,8.52
2022-10-14T15:10:54.306Z,8.77
2022-10-14T15:13:31.264Z,8.68
2022-10-14T15:15:59.093Z,7.68
2022-10-14T15:18:29.613Z,7.40
2022-10-14T15:21:18.937Z,8.60
2022-10-14T15:24:03.004Z,8.57
2022-10-14T15:26:33.410Z,8.60
2022-10-14T15:29:16.022Z,8.20
2022-10-14T15:31:46.219Z,9.00
2022-10-14T15:34:21.411Z,8.98
2022-10-14T15:36:52.510Z,8.25
2022-10-14T15:39:23.566Z,8.60
2022-10-14T15:41:51.716Z,8.48
2022-10-14T15:44:19.553Z,8.55
2022-10-14T15:47:05.615Z,9.45
2022-10-14T15:49:39.036Z,9.45
2022-10-14T15:52:06.962Z,8.05
2022-10-14T15:54:34.888Z,8.90
2022-10-14T15:57:02.715Z,9.05
2022-10-14T15:59:30.717Z,8.95
2022-10-14T16:01:58.851Z,8.52
2022-10-14T16:04:27.864Z,8.75
2022-10-14T16:06:57.968Z,7.85
2022-10-14T16:09:27.520Z,9.05
2022-10-14T16:11:58.037Z,10.52
2022-10-14T16:14:27.009Z,12.35
2022-10-14T16:16:55.647Z,13.77
2022-10-14T16:19:23.513Z,12.73
2022-10-14T16:21:51.414Z,15.50
2022-10-14T16:24:25.251Z,14.00
2022-10-14T16:26:53.285Z,12.48
2022-10-14T16:29:22.403Z,11.57
2022-10-14T16:31:51.261Z,9.93
2022-10-14T16:34:19.676Z,9.27
2022-10-14T16:36:48.941Z,11.23
2022-10-14T16:39:17.783Z,14.95
2022-10-14T16:41:48.442Z,16.70
2022-10-14T16:44:25.217Z,16.73
2022-10-14T16:47:11.136Z,13.60
2022-10-14T16:49:39.683Z,11.10
2022-10-14T16:52:07.783Z,11.30
2022-10-14T16:54:35.594Z,15.55
2022-10-14T16:57:06.033Z,17.42
2022-10-14T16:59:34.404Z,17.70
2022-10-14T17:02:02.703Z,13.90
2022-10-14T17:04:30.894Z,15.45
2022-10-14T17:06:59.248Z,14.00
2022-10-14T17:09:27.144Z,14.18
2022-10-14T17:11:57.055Z,13.60
2022-10-14T17:14:28.048Z,12.48
2022-10-14T17:16:55.871Z,11.57
2022-10-14T17:19:23.808Z,10.05
2022-10-14T17:21:51.608Z,10.02
2022-10-14T17:24:19.709Z,10.13
2022-10-14T17:26:48.073Z,9.88
2022-10-14T17:29:15.904Z,9.25
2022-10-14T17:31:45.211Z,8.90
2022-10-14T17:34:13.930Z,10.63
2022-10-14T17:36:42.380Z,12.40
2022-10-14T17:39:18.733Z,12.48
2022-10-14T17:41:52.834Z,13.65
2022-10-14T17:44:20.843Z,14.30
2022-10-14T17:46:49.976Z,12.13
2022-10-14T17:49:17.917Z,12.10
2022-10-14T17:51:45.762Z,13.10
2022-10-14T17:54:13.724Z,12.20
2022-10-14T17:56:41.564Z,11.70
2022-10-14T17:59:14.124Z,10.13
2022-10-14T18:04:32.267Z,9.23
2022-10-14T18:07:00.511Z,9.65
2022-10-14T18:09:28.339Z,9.95
2022-10-14T18:12:13.178Z,11.95
2022-10-14T18:14:41.548Z,11.75
2022-10-14T18:17:10.770Z,16.63
2022-10-14T18:19:40.940Z,14.18
2022-10-14T18:22:08.778Z,13.70
2022-10-14T18:24:38.096Z,11.45
2022-10-14T18:27:06.191Z,11.38
2022-10-14T18:29:34.052Z,11.52
2022-10-14T18:32:02.522Z,9.95
2022-10-14T18:34:30.700Z,9.90
2022-10-14T18:36:59.926Z,10.20
2022-10-14T18:39:27.966Z,11.18
2022-10-14T18:41:55.866Z,9.98
2022-10-14T18:44:23.698Z,10.98
2022-10-14T18:46:51.483Z,11.43
2022-10-14T18:49:19.354Z,11.27
2022-10-14T18:51:47.578Z,11.82
2022-10-14T18:54:18.971Z,11.45
2022-10-14T18:56:47.162Z,11.77
2022-10-14T18:59:17.745Z,10.85
2022-10-14T19:01:46.820Z,10.98
2022-10-14T19:04:17.106Z,11.70
2022-10-14T19:06:48.554Z,11.77
2022-10-14T19:09:20.840Z,13.35
2022-10-14T19:11:51.412Z,13.00
2022-10-14T19:14:19.411Z,13.48
2022-10-14T19:16:49.481Z,13.20
2022-10-14T19:19:19.832Z,13.77
2022-10-14T19:21:50.770Z,14.27
2022-10-14T19:24:19.912Z,14.48
2022-10-14T19:26:48.900Z,13.27
2022-10-14T19:29:17.200Z,12.98
2022-10-14T19:31:45.444Z,12.63
2022-10-14T19:34:14.618Z,12.43
2022-10-14T19:36:43.124Z,12.43
2022-10-14T19:39:13.472Z,12.77
2022-10-14T19:41:44.712Z,12.18
2022-10-14T19:44:13.627Z,12.05
2022-10-14T19:46:41.844Z,10.77
2022-10-14T19:49:12.295Z,14.30
2022-10-14T19:51:40.271Z,13.52
2022-10-14T19:54:08.551Z,16.50
2022-10-14T19:56:36.711Z,14.73
2022-10-14T19:59:05.911Z,14.38
2022-10-14T20:01:34.197Z,13.98
2022-10-14T20:04:03.218Z,12.85
2022-10-14T20:06:33.171Z,14.88
2022-10-14T20:09:01.495Z,14.90
2022-10-14T20:11:29.743Z,13.80
2022-10-14T20:13:57.914Z,13.88
2022-10-14T20:16:27.433Z,11.90
2022-10-14T20:18:55.656Z,11.85
2022-10-14T20:21:23.823Z,12.52
2022-10-14T20:23:51.977Z,11.07
2022-10-14T20:26:22.135Z,12.13
2022-10-14T20:28:51.149Z,11.30
2022-10-14T20:31:21.801Z,12.20
2022-10-14T20:33:50.992Z,10.25
2022-10-14T20:36:20.735Z,11.00
2022-10-14T20:38:49.170Z,11.48
2022-10-14T20:41:19.392Z,12.15
2022-10-14T20:43:47.842Z,12.43
2022-10-14T20:46:16.335Z,12.48
2022-10-14T20:48:44.649Z,12.48
2022-10-14T20:51:15.960Z,11.73
2022-10-14T20:53:44.683Z,11.65
2022-10-14T20:56:16.740Z,13.82
2022-10-14T20:58:44.554Z,12.73
2022-10-14T21:01:14.220Z,11.50
2022-10-14T21:03:43.631Z,12.95
2022-10-14T21:06:16.477Z,12.45
2022-10-14T21:08:44.272Z,12.43
2022-10-14T21:11:15.224Z,14.23
2022-10-14T21:13:45.432Z,11.95
2022-10-14T21:16:20.558Z,14.20
2022-10-14T21:18:52.193Z,12.70
2022-10-14T21:21:25.412Z,13.15
2022-10-14T21:23:53.627Z,13.65
2022-10-14T21:26:21.609Z,14.10
2022-10-14T21:28:49.462Z,15.18
2022-10-14T21:31:19.206Z,14.32
2022-10-14T21:33:47.976Z,14.52
2022-10-14T21:36:19.844Z,13.60
2022-10-14T21:38:49.048Z,14.68
2022-10-14T21:41:16.951Z,15.95
2022-10-14T21:43:45.091Z,14.27
2022-10-14T21:46:14.706Z,15.10
2022-10-14T21:48:43.759Z,13.95
2022-10-14T21:51:13.863Z,14.00
2022-10-14T21:53:42.630Z,14.52
2022-10-14T21:56:12.796Z,14.43
2022-10-14T21:58:41.311Z,14.07
2022-10-14T22:01:10.813Z,15.40
2022-10-14T22:03:40.132Z,14.10
2022-10-14T22:06:10.414Z,14.02
2022-10-14T22:08:41.556Z,12.70
2022-10-14T22:11:19.823Z,14.50
2022-10-14T22:13:47.747Z,14.45
2022-10-14T22:16:16.876Z,15.52
2022-10-14T22:18:46.679Z,14.60
2022-10-14T22:21:16.475Z,16.23
2022-10-14T22:23:44.676Z,14.82
2022-10-14T22:26:14.121Z,16.40
2022-10-14T22:28:43.511Z,16.00
2022-10-14T22:31:13.447Z,14.48
2022-10-14T22:33:42.498Z,16.35
2022-10-14T22:36:12.193Z,15.02
2022-10-14T22:38:41.679Z,20.77
2022-10-14T22:41:10.486Z,17.13
2022-10-14T22:43:38.986Z,20.67
2022-10-14T22:46:11.680Z,16.77
2022-10-14T22:48:39.753Z,17.00
2022-10-14T22:51:09.265Z,15.45
2022-10-14T22:53:37.791Z,16.70
2022-10-14T22:56:06.523Z,16.95
2022-10-14T22:58:34.805Z,16.75
2022-10-14T23:01:12.144Z,16.73
2022-10-14T23:03:40.246Z,16.80
2022-10-14T23:06:10.726Z,16.60
2022-10-14T23:08:38.956Z,16.48
2022-10-14T23:11:07.617Z,16.60
2022-10-14T23:13:35.748Z,15.95
2022-10-14T23:16:05.682Z,16.38
2022-10-14T23:18:36.949Z,17.52
2022-10-14T23:21:12.534Z,18.10
2022-10-14T23:23:41.255Z,16.70
2022-10-14T23:26:10.368Z,16.67
2022-10-14T23:28:38.888Z,16.20
2022-10-14T23:31:11.156Z,16.50
2022-10-14T23:33:40.986Z,16.35
2022-10-14T23:36:11.588Z,15.98
2022-10-14T23:38:40.453Z,16.20
2022-10-14T23:41:10.649Z,16.23
2022-10-14T23:43:39.135Z,16.05
2022-10-14T23:46:08.038Z,15.77
2022-10-14T23:48:36.226Z,15.13
2022-10-14T23:51:05.945Z,15.57
2022-10-14T23:53:34.364Z,14.85
2022-10-14T23:56:02.624Z,15.95
2022-10-14T23:58:30.940Z,15.18
